Time;durP1;ratioP1;P1;durP2;ratioP2;P2;SDS_P1;SDS_P2;PMS_P1;PMS_P2;Temp;Humidity;BMP_temperature;BMP_pressure;BME280_temperature;BME280_humidity;BME280_pressure;Samples;Min_cycle;Max_cycle;Signal;HPM_P1;HPM_P2
2023/04/16 00:01:17;;;;;;;26.33;20.20;;;9.00;99.90;;;;;;4935159;29;20240;-66
2023/04/16 00:03:45;;;;;;;25.07;20.00;;;9.00;99.90;;;;;;4934032;29;20264;-66
2023/04/16 00:06:14;;;;;;;20.60;18.47;;;8.90;99.90;;;;;;4929545;29;20320;-66
2023/04/16 00:08:42;;;;;;;20.33;17.77;;;8.90;99.90;;;;;;4924934;29;20250;-66
2023/04/16 00:11:11;;;;;;;24.10;20.17;;;8.90;99.90;;;;;;4920313;29;20237;-65
2023/04/16 00:13:39;;;;;;;21.63;18.60;;;8.90;99.90;;;;;;4923110;29;20696;-65
2023/04/16 00:16:08;;;;;;;25.43;20.23;;;8.90;99.90;;;;;;4937643;29;20696;-65
2023/04/16 00:18:38;;;;;;;24.93;20.53;;;8.90;99.90;;;;;;4930604;29;20236;-65
2023/04/16 00:21:07;;;;;;;26.37;19.17;;;8.90;99.90;;;;;;4928474;29;20235;-66
2023/04/16 00:23:35;;;;;;;25.03;20.73;;;8.80;99.90;;;;;;4938466;29;20231;-66
2023/04/16 00:26:03;;;;;;;27.30;20.87;;;8.80;99.90;;;;;;4938606;29;20232;-65
2023/04/16 00:28:31;;;;;;;23.17;20.70;;;8.80;99.90;;;;;;4938668;29;20235;-65
2023/04/16 00:31:00;;;;;;;26.00;21.10;;;8.80;99.90;;;;;;4938169;29;20228;-65
2023/04/16 00:33:29;;;;;;;25.63;20.87;;;8.70;99.90;;;;;;4938207;29;20277;-65
2023/04/16 00:35:59;;;;;;;25.67;21.23;;;8.80;99.90;;;;;;4930826;29;20247;-66
2023/04/16 00:38:29;;;;;;;29.07;21.17;;;8.80;99.90;;;;;;4936933;29;20605;-65
2023/04/16 00:40:57;;;;;;;25.60;22.07;;;8.80;99.90;;;;;;4938313;29;20703;-66
2023/04/16 00:43:26;;;;;;;24.13;21.40;;;8.80;99.90;;;;;;4938171;29;20263;-65
2023/04/16 00:45:56;;;;;;;28.57;21.67;;;8.80;99.90;;;;;;4936594;29;20235;-66
2023/04/16 00:48:26;;;;;;;24.73;21.03;;;8.70;99.90;;;;;;4930273;29;20745;-64
2023/04/16 00:50:55;;;;;;;24.57;21.40;;;8.80;99.90;;;;;;4926967;29;20234;-65
2023/04/16 00:53:25;;;;;;;25.90;21.33;;;8.80;99.90;;;;;;4938108;29;20225;-66
2023/04/16 00:55:54;;;;;;;25.83;21.40;;;8.80;99.90;;;;;;4937994;29;20243;-66
2023/04/16 00:58:23;;;;;;;26.50;21.63;;;8.80;99.90;;;;;;4938049;29;20267;-66
2023/04/16 01:00:51;;;;;;;24.77;20.33;;;8.80;99.90;;;;;;4936448;29;20237;-66
2023/04/16 01:03:19;;;;;;;24.10;21.50;;;8.80;99.90;;;;;;4937694;29;20270;-65
2023/04/16 01:05:49;;;;;;;25.63;20.80;;;8.80;99.90;;;;;;4929798;29;20247;-65
2023/04/16 01:08:18;;;;;;;27.07;21.53;;;8.80;99.90;;;;;;4937803;29;20689;-65
2023/04/16 01:10:48;;;;;;;23.63;20.00;;;8.80;99.90;;;;;;4937597;29;20224;-66
2023/04/16 01:13:16;;;;;;;25.53;20.70;;;8.70;99.90;;;;;;4937717;29;20232;-66
2023/04/16 01:15:44;;;;;;;23.70;19.10;;;8.70;99.90;;;;;;4936660;29;20238;-66
2023/04/16 01:18:16;;;;;;;24.87;20.53;;;8.70;99.90;;;;;;4944005;28;20577;-65
2023/04/16 01:20:45;;;;;;;23.90;20.33;;;8.70;99.90;;;;;;4928248;29;21720;-65
2023/04/16 01:23:14;;;;;;;26.37;20.13;;;8.70;99.90;;;;;;4937565;29;20221;-65
2023/04/16 01:25:42;;;;;;;23.97;19.77;;;8.70;99.90;;;;;;4936316;29;20248;-66
2023/04/16 01:28:10;;;;;;;23.27;18.93;;;8.60;99.90;;;;;;4937515;29;20228;-66
2023/04/16 01:30:39;;;;;;;20.97;18.67;;;8.70;99.90;;;;;;4951603;29;20245;-65
2023/04/16 01:33:21;;;;;;;24.70;20.13;;;8.60;99.90;;;;;;4935725;29;20740;-65
2023/04/16 01:35:50;;;;;;;25.37;19.40;;;8.60;99.90;;;;;;4928061;29;20283;-66
2023/04/16 01:38:19;;;;;;;26.73;20.20;;;8.60;99.90;;;;;;4937322;29;20228;-66
2023/04/16 01:40:47;;;;;;;24.87;20.03;;;8.60;99.90;;;;;;4937024;29;20608;-66
2023/04/16 01:43:15;;;;;;;22.57;18.67;;;8.50;99.90;;;;;;4935928;29;20231;-65
2023/04/16 01:45:43;;;;;;;23.77;19.63;;;8.50;99.90;;;;;;4934924;29;20770;-65
2023/04/16 01:48:12;;;;;;;24.03;19.20;;;8.50;99.90;;;;;;4943599;29;20229;-65
2023/04/16 01:50:40;;;;;;;22.87;19.07;;;8.50;99.90;;;;;;4926317;29;20232;-66
2023/04/16 01:53:10;;;;;;;23.27;19.03;;;8.50;99.90;;;;;;4937043;29;20225;-66
2023/04/16 01:55:38;;;;;;;21.07;18.87;;;8.50;99.90;;;;;;4936844;29;20292;-66
2023/04/16 01:58:09;;;;;;;24.97;21.03;;;8.50;99.90;;;;;;4935757;29;20238;-65
2023/04/16 02:00:38;;;;;;;22.93;20.40;;;8.50;99.90;;;;;;4934232;29;20605;-66
2023/04/16 02:03:06;;;;;;;25.00;20.60;;;8.40;99.90;;;;;;4951078;29;20227;-66
2023/04/16 02:05:34;;;;;;;25.20;21.53;;;8.40;99.90;;;;;;4936346;29;20323;-66
2023/04/16 02:08:03;;;;;;;23.30;19.20;;;8.40;99.90;;;;;;4936761;29;20225;-66
2023/04/16 02:10:32;;;;;;;26.03;21.13;;;8.40;99.90;;;;;;4935147;29;20229;-66
2023/04/16 02:13:00;;;;;;;24.70;19.53;;;8.40;99.90;;;;;;4935366;29;20232;-65
2023/04/16 02:15:29;;;;;;;24.67;20.13;;;8.40;99.90;;;;;;4928197;29;20757;-66
2023/04/16 02:17:57;;;;;;;25.30;20.20;;;8.40;99.90;;;;;;4935177;29;20227;-66
2023/04/16 02:20:26;;;;;;;24.53;20.17;;;8.40;99.90;;;;;;4946085;29;20704;-65
2023/04/16 02:22:58;;;;;;;27.70;21.20;;;8.40;99.90;;;;;;4935244;29;20323;-65
2023/04/16 02:25:27;;;;;;;26.50;21.30;;;8.30;99.90;;;;;;4950945;29;20288;-65
2023/04/16 02:27:59;;;;;;;26.83;21.43;;;8.30;99.90;;;;;;4936323;29;20726;-66
2023/04/16 02:30:36;;;;;;;25.17;20.33;;;8.30;99.90;;;;;;4950023;28;20309;-65
2023/04/16 02:33:06;;;;;;;26.97;20.33;;;8.30;99.90;;;;;;4943563;29;20224;-66
2023/04/16 02:35:35;;;;;;;25.07;20.23;;;8.30;99.90;;;;;;4927090;29;20239;-65
2023/04/16 02:38:04;;;;;;;23.33;20.27;;;8.30;99.90;;;;;;4934925;29;20283;-65
2023/04/16 02:40:32;;;;;;;25.57;22.17;;;8.30;99.90;;;;;;4934594;29;20308;-65
2023/04/16 02:43:01;;;;;;;27.50;21.30;;;8.30;99.90;;;;;;4935577;29;20251;-65
2023/04/16 02:45:30;;;;;;;25.40;21.20;;;8.30;99.90;;;;;;4941199;29;20236;-65
2023/04/16 02:47:59;;;;;;;25.17;19.40;;;8.30;99.90;;;;;;4941616;28;20231;-66
2023/04/16 02:50:27;;;;;;;24.50;20.80;;;8.30;99.90;;;;;;4935990;29;20229;-65
2023/04/16 02:52:55;;;;;;;26.33;20.37;;;8.20;99.90;;;;;;4931624;29;20231;-66
2023/04/16 02:55:23;;;;;;;25.13;20.40;;;8.30;99.90;;;;;;4931466;29;20235;-65
2023/04/16 02:57:51;;;;;;;26.40;21.67;;;8.20;99.90;;;;;;4915634;29;20247;-65
2023/04/16 03:00:21;;;;;;;25.27;19.43;;;8.20;99.90;;;;;;4930929;29;20316;-66
2023/04/16 03:02:49;;;;;;;25.00;21.63;;;8.30;99.90;;;;;;4924264;29;20234;-66
2023/04/16 03:05:18;;;;;;;25.50;20.50;;;8.30;99.90;;;;;;4924491;29;20260;-66
2023/04/16 03:07:46;;;;;;;28.37;21.60;;;8.20;99.90;;;;;;4915371;29;20382;-64
2023/04/16 03:10:15;;;;;;;28.63;22.40;;;8.20;99.90;;;;;;4922001;29;20701;-66
2023/04/16 03:12:43;;;;;;;26.60;21.13;;;8.20;99.90;;;;;;4935559;29;20239;-66
2023/04/16 03:15:12;;;;;;;25.97;21.00;;;8.20;99.90;;;;;;4935317;29;20219;-66
2023/04/16 03:17:41;;;;;;;26.00;20.67;;;8.20;99.90;;;;;;4927537;29;20266;-65
2023/04/16 03:20:10;;;;;;;27.00;22.23;;;8.20;99.90;;;;;;4922222;29;20229;-66
2023/04/16 03:22:38;;;;;;;25.43;20.33;;;8.20;99.90;;;;;;4915082;29;20246;-66
2023/04/16 03:25:07;;;;;;;26.17;20.40;;;8.10;99.90;;;;;;4916648;29;20330;-65
2023/04/16 03:27:35;;;;;;;27.57;21.30;;;8.10;99.90;;;;;;4915135;29;20228;-66
2023/04/16 03:30:05;;;;;;;26.97;20.77;;;8.20;99.90;;;;;;4916517;29;20224;-66
2023/04/16 03:32:34;;;;;;;23.17;19.70;;;8.20;99.90;;;;;;4929088;29;20231;-66
2023/04/16 03:35:07;;;;;;;24.47;19.50;;;8.20;99.90;;;;;;4942032;29;20229;-66
2023/04/16 03:37:35;;;;;;;25.93;20.73;;;8.20;99.90;;;;;;4934029;29;20239;-66
2023/04/16 03:40:05;;;;;;;29.27;20.97;;;8.20;99.90;;;;;;4934134;29;20235;-66
2023/04/16 03:42:34;;;;;;;23.80;20.40;;;8.20;99.90;;;;;;4936085;29;20326;-66
2023/04/16 03:45:02;;;;;;;27.20;20.17;;;8.20;99.90;;;;;;4954115;29;20240;-66
2023/04/16 03:47:32;;;;;;;24.87;21.13;;;8.20;99.90;;;;;;4929269;29;20650;-65
2023/04/16 03:50:02;;;;;;;22.10;19.00;;;8.20;99.90;;;;;;4926766;29;20252;-66
2023/04/16 03:52:32;;;;;;;22.83;19.37;;;8.20;99.90;;;;;;4918814;29;20233;-66
2023/04/16 03:55:02;;;;;;;25.90;19.67;;;8.20;99.90;;;;;;4920219;29;20711;-66
2023/04/16 03:57:31;;;;;;;23.80;18.63;;;8.10;99.90;;;;;;4919916;29;20637;-66
2023/04/16 04:00:08;;;;;;;24.17;19.00;;;8.10;99.90;;;;;;4920118;29;20230;-66
2023/04/16 04:02:55;;;;;;;23.13;19.63;;;8.10;99.90;;;;;;4922486;29;20606;-65
2023/04/16 04:05:24;;;;;;;24.73;20.13;;;8.10;99.90;;;;;;4908659;29;20778;-66
2023/04/16 04:07:54;;;;;;;27.60;19.50;;;8.10;99.90;;;;;;4915594;29;20222;-65
2023/04/16 04:10:22;;;;;;;25.77;20.00;;;8.10;99.90;;;;;;4918437;29;20235;-66
2023/04/16 04:12:50;;;;;;;27.47;22.47;;;8.10;99.90;;;;;;4918111;29;20342;-66
2023/04/16 04:15:19;;;;;;;26.57;20.90;;;8.10;99.90;;;;;;4918388;29;20709;-65
2023/04/16 04:17:47;;;;;;;27.63;21.37;;;8.10;99.90;;;;;;4910398;29;20585;-65
2023/04/16 04:20:15;;;;;;;27.20;20.97;;;8.10;99.90;;;;;;4905896;29;20233;-65
2023/04/16 04:22:45;;;;;;;26.87;21.60;;;8.10;99.90;;;;;;4900858;29;20328;-66
2023/04/16 04:25:16;;;;;;;26.60;21.50;;;8.10;99.90;;;;;;4907886;29;20253;-66
2023/04/16 04:27:44;;;;;;;27.83;22.57;;;8.10;99.90;;;;;;4919734;29;20243;-66
2023/04/16 04:30:12;;;;;;;25.70;21.73;;;8.10;99.90;;;;;;4919330;29;20232;-65
2023/04/16 04:32:41;;;;;;;30.37;21.70;;;8.10;99.90;;;;;;4937132;29;20242;-65
2023/04/16 04:35:10;;;;;;;27.07;21.60;;;8.10;99.90;;;;;;4929285;29;20646;-65
2023/04/16 04:37:38;;;;;;;27.47;21.73;;;8.10;99.90;;;;;;4936966;29;20232;-66
2023/04/16 04:40:16;;;;;;;29.90;22.70;;;8.10;99.90;;;;;;4937072;29;20722;-65
2023/04/16 04:42:45;;;;;;;26.47;21.33;;;8.10;99.90;;;;;;4936649;29;20243;-66
2023/04/16 04:45:14;;;;;;;28.30;22.27;;;8.10;99.90;;;;;;4936868;29;20328;-65
2023/04/16 04:47:42;;;;;;;27.33;21.87;;;8.10;99.90;;;;;;4934654;29;20228;-66
2023/04/16 04:50:11;;;;;;;27.77;22.17;;;8.10;99.90;;;;;;4951981;29;20307;-65
2023/04/16 04:52:39;;;;;;;27.30;22.33;;;8.10;99.90;;;;;;4943805;28;20237;-65
2023/04/16 04:55:08;;;;;;;26.70;21.23;;;8.10;99.90;;;;;;4948396;29;20228;-66
2023/04/16 04:57:38;;;;;;;28.53;22.57;;;8.10;99.90;;;;;;4937836;29;20223;-66
2023/04/16 05:00:07;;;;;;;27.53;22.20;;;8.10;99.90;;;;;;4936742;29;20225;-66
2023/04/16 05:02:44;;;;;;;27.63;21.27;;;8.10;99.90;;;;;;4936238;29;20246;-65
2023/04/16 05:05:12;;;;;;;25.97;21.47;;;8.20;99.90;;;;;;4929532;29;20258;-65
2023/04/16 05:07:40;;;;;;;25.70;20.57;;;8.20;99.90;;;;;;4937310;29;20645;-65
2023/04/16 05:10:09;;;;;;;28.53;20.80;;;8.20;99.90;;;;;;4937349;29;20236;-65
2023/04/16 05:12:41;;;;;;;26.27;20.97;;;8.20;99.90;;;;;;4918908;29;20558;-66
2023/04/16 05:15:10;;;;;;;26.87;20.67;;;8.20;99.90;;;;;;4934024;29;20230;-66
2023/04/16 05:17:38;;;;;;;26.37;20.67;;;8.20;99.90;;;;;;4928431;29;20908;-65
2023/04/16 05:20:07;;;;;;;24.93;20.40;;;8.20;99.90;;;;;;4932637;29;20294;-64
2023/04/16 05:22:36;;;;;;;26.47;20.03;;;8.20;99.90;;;;;;4936267;29;20236;-65
2023/04/16 05:25:04;;;;;;;24.50;20.03;;;8.30;99.90;;;;;;4942278;29;20220;-66
2023/04/16 05:27:32;;;;;;;27.37;20.93;;;8.30;99.90;;;;;;4937628;29;20718;-66
2023/04/16 05:30:02;;;;;;;25.00;20.60;;;8.30;99.90;;;;;;4937733;29;20228;-66
2023/04/16 05:32:30;;;;;;;26.87;19.73;;;8.30;99.90;;;;;;4936857;29;20266;-66
2023/04/16 05:34:58;;;;;;;24.50;20.10;;;8.30;99.90;;;;;;4937087;29;20291;-66
2023/04/16 05:37:26;;;;;;;25.40;20.13;;;8.30;99.90;;;;;;4937023;29;20228;-56
2023/04/16 05:39:54;;;;;;;23.03;19.40;;;8.30;99.90;;;;;;4936160;29;20232;-57
2023/04/16 05:42:22;;;;;;;23.87;19.90;;;8.40;99.90;;;;;;4937244;29;20724;-56
2023/04/16 05:44:51;;;;;;;25.60;20.53;;;8.40;99.90;;;;;;4937059;29;20231;-57
2023/04/16 05:47:20;;;;;;;24.20;19.60;;;8.40;99.90;;;;;;4931805;29;20229;-56
2023/04/16 05:49:48;;;;;;;25.93;21.00;;;8.40;99.90;;;;;;4925221;29;20233;-56
2023/04/16 05:52:16;;;;;;;23.83;19.63;;;8.40;99.90;;;;;;4918095;29;20233;-57
2023/04/16 05:54:45;;;;;;;26.13;20.07;;;8.40;99.90;;;;;;4934612;29;20236;-56
2023/04/16 05:57:13;;;;;;;27.20;19.73;;;8.50;99.90;;;;;;4917912;29;20237;-56
2023/04/16 05:59:41;;;;;;;24.57;19.77;;;8.50;99.90;;;;;;4918075;29;20229;-56
2023/04/16 06:02:09;;;;;;;25.43;20.73;;;8.50;99.90;;;;;;4933946;29;20742;-56
2023/04/16 06:04:39;;;;;;;25.77;20.13;;;8.50;99.90;;;;;;4927589;29;20276;-57
2023/04/16 06:07:07;;;;;;;23.50;19.63;;;8.50;99.90;;;;;;4936775;29;20232;-57
2023/04/16 06:09:35;;;;;;;25.33;21.03;;;8.60;99.90;;;;;;4936800;29;20689;-55
2023/04/16 06:12:04;;;;;;;26.77;21.00;;;8.60;99.90;;;;;;4936670;29;20236;-56
2023/04/16 06:14:32;;;;;;;24.33;20.57;;;8.60;99.90;;;;;;4936738;29;20243;-56
2023/04/16 06:17:00;;;;;;;25.73;19.77;;;8.60;99.90;;;;;;4933897;29;20236;-57
2023/04/16 06:19:28;;;;;;;29.03;21.37;;;8.60;99.90;;;;;;4925102;29;20605;-57
2023/04/16 06:21:57;;;;;;;23.80;19.80;;;8.60;99.90;;;;;;4933324;29;20699;-56
2023/04/16 06:24:25;;;;;;;23.83;19.87;;;8.60;99.90;;;;;;4935100;29;20688;-57
2023/04/16 06:26:54;;;;;;;27.57;21.23;;;8.70;99.90;;;;;;4918747;29;20233;-56
2023/04/16 06:29:22;;;;;;;24.10;20.57;;;8.70;99.90;;;;;;4917648;29;20229;-56
2023/04/16 06:32:05;;;;;;;24.43;19.77;;;8.70;99.90;;;;;;4930572;29;20775;-56
2023/04/16 06:34:33;;;;;;;23.57;20.07;;;8.80;99.90;;;;;;4936334;29;20738;-57
2023/04/16 06:37:02;;;;;;;25.23;20.70;;;8.80;99.90;;;;;;4928827;29;20232;-56
2023/04/16 06:39:30;;;;;;;27.27;20.33;;;8.90;99.90;;;;;;4936257;29;20730;-56
2023/04/16 06:41:59;;;;;;;23.17;19.87;;;8.90;99.90;;;;;;4936675;29;20236;-57
2023/04/16 06:44:27;;;;;;;22.90;19.90;;;8.90;99.90;;;;;;4950884;29;20928;-57
2023/04/16 06:46:55;;;;;;;25.23;19.50;;;8.90;99.90;;;;;;4934015;29;20240;-56
2023/04/16 06:49:23;;;;;;;25.47;19.77;;;8.90;99.90;;;;;;4930348;29;20297;-56
2023/04/16 06:51:51;;;;;;;25.63;20.23;;;9.00;99.90;;;;;;4932724;29;20227;-57
2023/04/16 06:54:20;;;;;;;22.67;18.70;;;9.00;99.90;;;;;;4935813;29;20228;-57
2023/04/16 06:56:48;;;;;;;24.27;21.10;;;9.00;99.90;;;;;;4918858;29;20229;-57
2023/04/16 06:59:16;;;;;;;24.50;19.30;;;9.00;99.90;;;;;;4916770;29;20229;-57
2023/04/16 07:01:44;;;;;;;24.20;19.07;;;9.10;99.90;;;;;;4916721;29;20247;-56
2023/04/16 07:04:13;;;;;;;24.07;19.87;;;9.10;99.90;;;;;;4927838;29;20704;-57
2023/04/16 07:06:41;;;;;;;25.70;20.23;;;9.10;99.90;;;;;;4935195;29;20245;-56
2023/04/16 07:09:09;;;;;;;26.10;19.47;;;9.20;99.90;;;;;;4935977;29;20228;-57
2023/04/16 07:11:39;;;;;;;25.60;19.63;;;9.20;99.90;;;;;;4935549;29;20235;-57
2023/04/16 07:14:07;;;;;;;24.07;19.17;;;9.20;99.90;;;;;;4935011;29;20227;-56
2023/04/16 07:16:36;;;;;;;25.27;19.80;;;9.20;99.90;;;;;;4935232;29;20231;-57
2023/04/16 07:19:04;;;;;;;23.27;19.73;;;9.20;99.90;;;;;;4924658;29;20232;-57
2023/04/16 07:21:32;;;;;;;24.17;19.57;;;9.30;99.90;;;;;;4916738;29;20243;-56
2023/04/16 07:24:00;;;;;;;22.70;19.23;;;9.30;99.90;;;;;;4928264;29;20647;-56
2023/04/16 07:26:28;;;;;;;22.97;19.53;;;9.30;99.90;;;;;;4928436;29;20233;-56
2023/04/16 07:28:58;;;;;;;23.10;18.27;;;9.30;99.90;;;;;;4934870;29;20236;-57
2023/04/16 07:31:26;;;;;;;22.30;18.37;;;9.40;99.90;;;;;;4934717;29;20228;-56
2023/04/16 07:33:54;;;;;;;22.57;18.63;;;9.50;99.90;;;;;;4935246;29;20561;-57
2023/04/16 07:36:22;;;;;;;21.83;17.83;;;9.60;99.90;;;;;;4935464;29;20688;-56
2023/04/16 07:38:50;;;;;;;20.87;17.50;;;9.60;99.90;;;;;;4935357;29;20230;-57
2023/04/16 07:41:19;;;;;;;24.50;18.50;;;9.70;99.90;;;;;;4935647;29;20231;-57
2023/04/16 07:43:47;;;;;;;23.23;18.00;;;9.70;99.90;;;;;;4935203;29;20783;-57
2023/04/16 07:46:16;;;;;;;22.93;18.70;;;9.80;99.90;;;;;;4935163;29;20251;-56
2023/04/16 07:48:44;;;;;;;20.77;17.47;;;9.80;99.90;;;;;;4934677;29;20314;-57
2023/04/16 07:51:12;;;;;;;19.90;16.67;;;9.80;99.90;;;;;;4935581;29;20238;-56
2023/04/16 07:53:40;;;;;;;22.43;18.20;;;9.90;99.90;;;;;;4934951;29;20229;-57
2023/04/16 07:56:09;;;;;;;25.73;18.40;;;9.80;99.90;;;;;;4923587;29;20240;-56
2023/04/16 07:58:37;;;;;;;22.33;18.17;;;9.90;99.90;;;;;;4916410;29;20237;-56
2023/04/16 08:01:05;;;;;;;22.73;16.77;;;10.00;99.90;;;;;;4915859;29;20589;-56
2023/04/16 08:03:34;;;;;;;20.33;17.17;;;10.10;99.90;;;;;;4930220;29;20236;-57
2023/04/16 08:06:03;;;;;;;23.23;17.37;;;10.10;99.90;;;;;;4927272;29;20319;-57
2023/04/16 08:08:31;;;;;;;19.43;17.20;;;10.10;99.90;;;;;;4935085;29;20592;-57
2023/04/16 08:10:59;;;;;;;19.23;16.47;;;10.10;99.90;;;;;;4935027;29;20232;-56
2023/04/16 08:13:27;;;;;;;20.37;16.67;;;10.10;99.90;;;;;;4935199;29;20229;-56
2023/04/16 08:15:56;;;;;;;20.77;16.27;;;10.20;99.90;;;;;;4934738;29;20702;-56
2023/04/16 08:18:25;;;;;;;20.27;17.70;;;10.20;99.90;;;;;;4926969;29;20327;-56
2023/04/16 08:20:54;;;;;;;22.30;18.20;;;10.20;99.90;;;;;;4919590;29;20593;-56
2023/04/16 08:23:23;;;;;;;22.80;17.03;;;10.20;99.90;;;;;;4927602;29;20231;-56
2023/04/16 08:25:51;;;;;;;21.80;17.33;;;10.20;99.90;;;;;;4934691;29;20230;-56
2023/04/16 08:28:20;;;;;;;18.60;15.43;;;10.30;99.90;;;;;;4933010;29;20229;-56
2023/04/16 08:30:48;;;;;;;18.93;15.80;;;10.40;99.90;;;;;;4934966;29;20247;-56
2023/04/16 08:33:16;;;;;;;19.60;15.87;;;10.50;99.90;;;;;;4938068;29;20718;-56
2023/04/16 08:35:44;;;;;;;20.43;15.73;;;10.50;99.90;;;;;;4929371;29;20231;-56
2023/04/16 08:38:13;;;;;;;20.60;15.97;;;10.40;99.90;;;;;;4924472;29;20228;-56
2023/04/16 08:40:42;;;;;;;19.30;15.37;;;10.50;99.90;;;;;;4938206;29;20239;-56
2023/04/16 08:43:12;;;;;;;18.47;15.90;;;10.60;99.90;;;;;;4938650;29;20228;-57
2023/04/16 08:45:41;;;;;;;19.33;15.53;;;10.60;99.90;;;;;;4957211;29;20258;-57
2023/04/16 08:48:11;;;;;;;18.87;15.07;;;10.70;99.90;;;;;;4928181;28;20230;-56
2023/04/16 08:50:41;;;;;;;20.97;15.40;;;10.80;99.90;;;;;;4932191;29;20692;-56
2023/04/16 08:53:16;;;;;;;23.13;16.10;;;10.90;99.90;;;;;;4938308;29;20263;-56
2023/04/16 08:55:47;;;;;;;18.87;15.77;;;11.00;99.90;;;;;;4936378;29;20245;-56
2023/04/16 08:58:18;;;;;;;16.90;15.00;;;11.10;99.90;;;;;;4931603;29;20229;-56
2023/04/16 09:00:47;;;;;;;24.07;16.30;;;11.00;99.90;;;;;;4937187;29;20246;-56
2023/04/16 09:03:15;;;;;;;17.60;15.67;;;11.00;99.90;;;;;;4936810;29;20233;-57
2023/04/16 09:05:44;;;;;;;19.10;15.57;;;11.00;99.90;;;;;;4929403;29;20241;-56
2023/04/16 09:08:15;;;;;;;20.17;15.73;;;11.10;99.90;;;;;;4926115;29;20245;-57
2023/04/16 09:10:47;;;;;;;21.50;16.00;;;11.20;99.90;;;;;;4922509;29;20243;-57
2023/04/16 09:13:19;;;;;;;19.43;15.50;;;11.20;99.90;;;;;;4922936;29;20311;-55
2023/04/16 09:15:47;;;;;;;22.83;15.70;;;11.10;99.90;;;;;;4923997;29;20396;-57
2023/04/16 09:18:17;;;;;;;18.60;15.47;;;11.10;99.90;;;;;;4925669;29;20237;-57
2023/04/16 09:20:45;;;;;;;20.10;16.00;;;11.10;99.90;;;;;;4926206;29;20236;-56
2023/04/16 09:23:15;;;;;;;20.27;15.80;;;11.20;99.90;;;;;;4924366;29;20693;-56
2023/04/16 09:25:43;;;;;;;18.60;15.80;;;11.20;99.90;;;;;;4924151;29;20624;-54
2023/04/16 09:28:11;;;;;;;19.27;15.40;;;11.20;99.90;;;;;;4922473;29;20233;-56
2023/04/16 09:30:39;;;;;;;18.37;15.10;;;11.20;99.90;;;;;;4923508;29;20623;-56
2023/04/16 09:33:21;;;;;;;16.93;15.13;;;11.20;99.90;;;;;;4924154;29;21023;-56
2023/04/16 09:35:51;;;;;;;19.80;15.10;;;11.30;99.90;;;;;;4925620;29;20229;-56
2023/04/16 09:38:21;;;;;;;19.53;16.07;;;11.40;99.90;;;;;;4923663;29;20345;-56
2023/04/16 09:41:06;;;;;;;17.63;14.80;;;11.40;99.90;;;;;;4923694;29;20244;-58
2023/04/16 09:43:35;;;;;;;24.30;16.37;;;11.50;99.90;;;;;;4923817;29;20723;-54
2023/04/16 09:46:04;;;;;;;19.47;15.57;;;11.50;99.90;;;;;;4923409;29;20238;-55
2023/04/16 09:48:35;;;;;;;17.73;13.90;;;11.60;99.90;;;;;;4921872;29;20760;-57
2023/04/16 09:51:06;;;;;;;18.53;15.17;;;11.70;99.90;;;;;;4924086;29;20609;-56
2023/04/16 09:53:36;;;;;;;17.30;14.83;;;11.80;99.90;;;;;;4925239;29;20252;-56
2023/04/16 09:56:06;;;;;;;23.07;15.93;;;11.70;99.90;;;;;;4925555;29;20233;-55
2023/04/16 09:58:36;;;;;;;17.87;15.33;;;11.60;99.90;;;;;;4923036;29;20243;-54
2023/04/16 10:01:07;;;;;;;21.73;15.83;;;11.50;99.90;;;;;;4925060;29;20261;-56
2023/04/16 10:03:36;;;;;;;19.77;15.50;;;11.50;99.90;;;;;;4924547;29;20986;-57
2023/04/16 10:06:09;;;;;;;17.00;15.10;;;11.40;99.90;;;;;;4925142;29;20254;-56
2023/04/16 10:08:43;;;;;;;17.73;15.20;;;11.50;99.90;;;;;;4924690;29;20231;-56
2023/04/16 10:11:11;;;;;;;19.00;16.07;;;11.50;99.90;;;;;;4924399;29;20244;-56
2023/04/16 10:13:39;;;;;;;19.40;15.43;;;11.50;99.90;;;;;;4922260;29;20229;-56
2023/04/16 10:16:08;;;;;;;19.27;15.90;;;11.60;99.90;;;;;;4922847;29;20233;-55
2023/04/16 10:18:37;;;;;;;18.83;15.10;;;11.80;99.90;;;;;;4921065;29;20238;-56
2023/04/16 10:21:06;;;;;;;17.67;15.30;;;12.00;99.90;;;;;;4922583;29;20242;-54
2023/04/16 10:23:35;;;;;;;17.20;15.23;;;11.90;99.90;;;;;;4922814;29;20735;-55
2023/04/16 10:26:06;;;;;;;16.77;14.63;;;11.90;99.90;;;;;;4922581;29;20249;-56
2023/04/16 10:28:35;;;;;;;18.30;15.53;;;12.10;99.90;;;;;;4920945;29;20248;-54
2023/04/16 10:31:05;;;;;;;18.20;15.47;;;12.20;99.90;;;;;;4922323;29;20247;-55
2023/04/16 10:33:35;;;;;;;20.40;15.67;;;12.20;99.90;;;;;;4922096;29;20241;-56
2023/04/16 10:36:11;;;;;;;17.17;15.37;;;12.30;99.90;;;;;;4922108;29;20256;-55
2023/04/16 10:38:40;;;;;;;20.33;16.13;;;12.30;99.90;;;;;;4921291;29;20233;-56
2023/04/16 10:41:10;;;;;;;18.67;15.97;;;12.30;99.90;;;;;;4921681;29;20238;-56
2023/04/16 10:43:45;;;;;;;19.47;15.40;;;12.30;99.90;;;;;;4922548;29;20242;-55
2023/04/16 10:46:22;;;;;;;20.80;15.93;;;12.30;99.90;;;;;;4921571;29;20608;-56
2023/04/16 10:48:52;;;;;;;20.60;16.23;;;12.20;99.90;;;;;;4921202;29;20242;-57
2023/04/16 10:51:26;;;;;;;18.13;15.23;;;12.30;99.90;;;;;;4922098;29;20728;-55
2023/04/16 10:53:56;;;;;;;20.77;15.47;;;12.40;99.90;;;;;;4922677;29;20248;-55
2023/04/16 10:56:26;;;;;;;18.23;15.77;;;12.40;99.90;;;;;;4921107;29;20585;-55
2023/04/16 10:58:58;;;;;;;18.20;14.27;;;12.40;99.90;;;;;;4920534;29;20318;-56
2023/04/16 11:01:34;;;;;;;19.27;15.90;;;12.40;99.90;;;;;;4921238;29;20242;-56
2023/04/16 11:04:43;;;;;;;18.47;15.20;;;12.20;99.90;;;;;;4921955;29;20253;-58
2023/04/16 11:07:18;;;;;;;19.97;15.30;;;12.10;99.90;;;;;;4911195;29;20583;-56
2023/04/16 11:09:58;;;;;;;17.30;15.50;;;12.00;99.90;;;;;;4921722;29;20245;-56
2023/04/16 11:12:36;;;;;;;19.07;16.10;;;12.00;99.90;;;;;;4922130;29;20626;-57
2023/04/16 11:15:05;;;;;;;17.77;15.63;;;12.00;99.90;;;;;;4922345;29;20274;-56
2023/04/16 11:17:37;;;;;;;17.70;15.03;;;12.10;99.90;;;;;;4916498;29;20995;-55
2023/04/16 11:20:06;;;;;;;19.10;15.43;;;12.10;99.90;;;;;;4922072;29;20239;-56
2023/04/16 11:22:47;;;;;;;18.80;16.13;;;12.10;99.90;;;;;;4921779;29;20774;-55
2023/04/16 11:25:20;;;;;;;19.63;15.23;;;12.10;99.90;;;;;;4921110;29;20236;-56
2023/04/16 11:27:50;;;;;;;19.73;15.53;;;12.10;99.90;;;;;;4917533;29;20296;-56
2023/04/16 11:30:18;;;;;;;18.13;14.70;;;12.20;99.90;;;;;;4921608;29;20226;-56
2023/04/16 11:32:47;;;;;;;18.93;15.57;;;12.30;99.90;;;;;;4922570;29;20752;-56
2023/04/16 11:35:18;;;;;;;18.40;16.00;;;12.30;99.90;;;;;;4922130;29;20254;-56
2023/04/16 11:37:47;;;;;;;17.87;16.03;;;12.40;99.90;;;;;;4916820;29;20234;-55
2023/04/16 11:40:15;;;;;;;17.03;14.67;;;12.50;99.90;;;;;;4921961;29;20556;-55
2023/04/16 11:42:44;;;;;;;17.40;15.50;;;12.60;99.90;;;;;;4921540;29;20799;-55
2023/04/16 11:45:18;;;;;;;18.87;15.03;;;12.60;99.90;;;;;;4922135;29;20898;-57
2023/04/16 11:47:50;;;;;;;19.60;15.77;;;12.60;99.90;;;;;;4915274;29;21098;-57
2023/04/16 11:50:21;;;;;;;18.27;15.47;;;12.60;99.90;;;;;;4921420;29;20236;-57
2023/04/16 11:52:50;;;;;;;19.40;15.93;;;12.80;99.90;;;;;;4921710;29;20696;-56
2023/04/16 11:55:19;;;;;;;20.13;15.03;;;12.90;99.90;;;;;;4922055;29;20598;-56
2023/04/16 11:57:47;;;;;;;16.53;14.77;;;12.90;99.90;;;;;;4916309;29;20231;-56
2023/04/16 12:00:17;;;;;;;17.73;15.67;;;12.70;99.90;;;;;;4922180;29;20559;-55
2023/04/16 12:02:51;;;;;;;20.03;15.97;;;12.70;99.90;;;;;;4923102;29;20257;-56
2023/04/16 12:05:27;;;;;;;18.57;15.53;;;12.70;99.90;;;;;;4926951;29;20261;-56
2023/04/16 12:07:57;;;;;;;17.57;15.67;;;12.70;99.90;;;;;;4919978;29;20232;-55
2023/04/16 12:10:25;;;;;;;18.43;15.30;;;12.70;99.90;;;;;;4925502;29;20245;-57
2023/04/16 12:12:54;;;;;;;20.73;16.13;;;12.70;99.90;;;;;;4925150;29;20241;-56
2023/04/16 12:15:23;;;;;;;17.20;15.07;;;12.60;99.90;;;;;;4925346;29;20262;-55
2023/04/16 12:18:06;;;;;;;17.97;15.80;;;12.60;99.90;;;;;;4920025;29;20234;-56
2023/04/16 12:20:40;;;;;;;19.03;16.03;;;12.50;99.90;;;;;;4924997;29;20571;-57
2023/04/16 12:23:09;;;;;;;17.53;14.77;;;12.50;99.90;;;;;;4924902;29;20246;-55
2023/04/16 12:25:37;;;;;;;17.27;15.43;;;12.40;99.90;;;;;;4924649;29;20227;-55
2023/04/16 12:28:05;;;;;;;20.03;16.63;;;12.40;99.90;;;;;;4919792;29;20235;-57
2023/04/16 12:30:50;;;;;;;19.60;15.97;;;12.40;99.90;;;;;;4924227;29;20622;-57
2023/04/16 12:33:20;;;;;;;19.03;15.40;;;12.60;99.90;;;;;;4925537;29;20242;-56
2023/04/16 12:35:48;;;;;;;17.53;15.70;;;12.60;99.90;;;;;;4925158;29;20235;-56
2023/04/16 12:38:16;;;;;;;19.43;15.07;;;12.60;99.90;;;;;;4920646;29;20237;-55
2023/04/16 12:40:48;;;;;;;18.40;15.23;;;12.80;99.90;;;;;;4925196;29;20594;-56
2023/04/16 12:43:17;;;;;;;17.90;14.77;;;12.70;99.90;;;;;;4925068;29;20243;-55
2023/04/16 12:45:46;;;;;;;16.97;14.90;;;12.70;99.90;;;;;;4924758;29;20673;-55